»·PEaware :: USC81 KEGE-KLAS

USC81 :: KEGE-KLAS

FLIGHT INFORMATION

Flight Status: Arrived
Operator: Unknown
More flights by this operator :: More flights under this callsign
Pilot: Andy P. (22680)
Aircraft: GATES LEARJET LEARJET 35/36
(LJ35)
More flights by this aircraft type
Origin: KEGE Eagle Co Regl
United States
Destination: KLAS McCarran Intl
United States
More flights between these airports :: More routes between these airports
Route: BEVVR1 SPRKT JNC GGAPP SITEE4
File this flight plan on PilotEdge
Remarks:
Altitude:
(Current/Filed)
43,000ft
Speed:
(Current/Filed)
465kts
Departed: 15-Apr-20 05:18 PM
Arrived: 15-Apr-20 06:35 PM
Distance/Time
Traveled:
444nm/1:17
Distance/Time
To Go:
Arrived

Flight Plot

Page will automatically refresh every two minutes.

Flight plan parsing failed; only flown route is shown


Map Options




Map Legend


Flown Route
Filed Route
Departure Airport
Arrival Airport
Navaid (VOR, NDB)
Fix

Horizontal Profiles

Position Reports

Time Latitude Longitude Heading Altitude Ground
Speed
15-Apr-20 17:03 39.641331 -106.909607 250 6518ft 0kts
15-Apr-20 17:04 39.641331 -106.909607 250 6518ft 0kts
15-Apr-20 17:05 39.641331 -106.909607 250 6518ft 0kts
15-Apr-20 17:06 39.641331 -106.909607 250 6518ft 0kts
15-Apr-20 17:07 39.641331 -106.909607 250 6518ft 0kts
15-Apr-20 17:08 39.641331 -106.909607 250 6518ft 0kts
15-Apr-20 17:09 39.641331 -106.909607 250 6518ft 0kts
15-Apr-20 17:10 39.641331 -106.909607 250 6518ft 0kts
15-Apr-20 17:11 39.641331 -106.909607 250 6518ft 0kts
15-Apr-20 17:12 39.641331 -106.909607 250 6518ft 0kts
15-Apr-20 17:13 39.641331 -106.909607 250 6518ft 0kts
15-Apr-20 17:14 39.641317 -106.909781 285 6518ft 4kts
15-Apr-20 17:15 39.642641 -106.907161 83 6518ft 21kts
15-Apr-20 17:16 39.644177 -106.900221 326 6518ft 13kts
15-Apr-20 17:17 39.634035 -106.939253 219 7700ft 201kts
15-Apr-20 17:18 39.582574 -106.986014 243 10759ft 224kts
15-Apr-20 17:19 39.586593 -107.062635 295 13353ft 225kts
15-Apr-20 17:20 39.639538 -107.107478 5 16855ft 281kts
15-Apr-20 17:21 39.712558 -107.102783 322 20180ft 229kts
15-Apr-20 17:22 39.769509 -107.144562 298 23144ft 224kts
15-Apr-20 17:23 39.756685 -107.223353 239 26610ft 253kts
15-Apr-20 17:24 39.722407 -107.306387 252 29677ft 255kts
15-Apr-20 17:25 39.682286 -107.389194 253 31800ft 282kts
15-Apr-20 17:26 39.645391 -107.478332 247 34478ft 281kts
15-Apr-20 17:27 39.606717 -107.567678 244 36287ft 291kts
15-Apr-20 17:28 39.565393 -107.659728 250 37643ft 299kts
15-Apr-20 17:29 39.525010 -107.754803 248 39156ft 303kts
15-Apr-20 17:30 39.482865 -107.850815 247 40337ft 310kts
15-Apr-20 17:31 39.439367 -107.949037 247 41400ft 317kts
15-Apr-20 17:32 39.395008 -108.048790 246 42337ft 323kts
15-Apr-20 17:33 39.349508 -108.150827 246 42907ft 337kts
15-Apr-20 17:34 39.300610 -108.260139 245 42913ft 366kts
15-Apr-20 17:35 39.247802 -108.377655 245 42908ft 390kts
15-Apr-20 17:36 39.191712 -108.501975 244 42905ft 409kts
15-Apr-20 17:37 39.133350 -108.630808 244 42903ft 422kts
15-Apr-20 17:38 39.073725 -108.761856 244 42903ft 423kts
15-Apr-20 17:39 39.015766 -108.893219 245 42903ft 421kts
15-Apr-20 17:40 38.958968 -109.024217 245 42903ft 421kts
15-Apr-20 17:41 38.901803 -109.155081 245 42906ft 420kts
15-Apr-20 17:42 38.844467 -109.285697 245 42907ft 420kts
15-Apr-20 17:43 38.787143 -109.415733 245 42907ft 420kts
15-Apr-20 17:44 38.729395 -109.546187 245 42907ft 420kts
15-Apr-20 17:45 38.671936 -109.675449 245 42907ft 420kts
15-Apr-20 17:46 38.613952 -109.805364 245 42907ft 419kts
15-Apr-20 17:47 38.555945 -109.934799 244 42907ft 419kts
15-Apr-20 17:48 38.498007 -110.063557 244 42913ft 419kts
15-Apr-20 17:49 38.439706 -110.192591 244 42923ft 419kts
15-Apr-20 17:50 38.381496 -110.320908 244 42931ft 419kts
15-Apr-20 17:51 38.322811 -110.449752 244 42938ft 419kts
15-Apr-20 17:52 38.264218 -110.577879 244 42943ft 420kts
15-Apr-20 17:53 38.205214 -110.706387 244 42946ft 421kts
15-Apr-20 17:54 38.146022 -110.834793 244 42949ft 421kts
15-Apr-20 17:55 38.086518 -110.963347 244 43000ft 421kts
15-Apr-20 17:56 38.026984 -111.091468 244 43005ft 422kts
15-Apr-20 17:57 37.967067 -111.219893 244 43005ft 422kts
15-Apr-20 17:58 37.907146 -111.347821 244 43005ft 422kts
15-Apr-20 17:59 37.847211 -111.475271 244 43011ft 422kts
15-Apr-20 18:00 37.786753 -111.603318 244 43001ft 423kts
15-Apr-20 18:01 37.726168 -111.731140 244 43011ft 423kts
15-Apr-20 18:02 37.665546 -111.858541 243 43033ft 424kts
15-Apr-20 18:03 37.604978 -111.985337 243 43034ft 424kts
15-Apr-20 18:04 37.544015 -112.112464 243 43034ft 424kts
15-Apr-20 18:05 37.483038 -112.239922 243 43034ft 424kts
15-Apr-20 18:06 37.422067 -112.367163 243 43034ft 424kts
15-Apr-20 18:07 37.360915 -112.494278 243 43034ft 424kts
15-Apr-20 18:08 37.299811 -112.620811 243 43034ft 423kts
15-Apr-20 18:10 37.238919 -112.746420 243 43034ft 423kts
15-Apr-20 18:11 37.177450 -112.872736 243 43034ft 423kts
15-Apr-20 18:12 37.116675 -112.997102 242 41421ft 406kts
15-Apr-20 18:13 37.058907 -113.114932 242 39034ft 388kts
15-Apr-20 18:14 37.001519 -113.231654 242 36697ft 403kts
15-Apr-20 18:15 36.941178 -113.353877 243 34251ft 421kts
15-Apr-20 18:16 36.878662 -113.480016 242 31723ft 431kts
15-Apr-20 18:17 36.815130 -113.607703 242 29162ft 434kts
15-Apr-20 18:18 36.751128 -113.735868 242 26589ft 439kts
15-Apr-20 18:19 36.686090 -113.866231 242 24078ft 445kts
15-Apr-20 18:20 36.620398 -113.996176 241 23948ft 440kts
15-Apr-20 18:21 36.555833 -114.123615 241 22978ft 416kts
15-Apr-20 18:22 36.492327 -114.247883 241 19582ft 430kts
15-Apr-20 18:23 36.429772 -114.369803 241 16183ft 412kts
15-Apr-20 18:24 36.370764 -114.484458 240 12788ft 381kts
15-Apr-20 18:25 36.312488 -114.588002 228 11838ft 329kts
15-Apr-20 18:26 36.257659 -114.665422 231 10259ft 259kts
15-Apr-20 18:27 36.211682 -114.732851 231 8621ft 253kts
15-Apr-20 18:28 36.168476 -114.797542 231 7032ft 234kts
15-Apr-20 18:28 36.135718 -114.847500 232 6481ft 215kts
15-Apr-20 18:30 36.092919 -114.915467 235 5403ft 208kts
15-Apr-20 18:31 36.073578 -114.977087 272 4556ft 172kts
15-Apr-20 18:31 36.073797 -115.023430 270 3761ft 160kts
15-Apr-20 18:32 36.073927 -115.076204 268 2942ft 132kts
15-Apr-20 18:34 36.073662 -115.126203 269 2222ft 114kts
15-Apr-20 18:34 36.074113 -115.139944 50 2184ft 8kts
15-Apr-20 18:35 36.075024 -115.138147 37 2184ft 0kts
15-Apr-20 18:36 36.075164 -115.138026 29 2184ft 0kts

Navigation Log

Ident Type
Flight plan parsing failed, navigation log unavailable